シーブ国際空港の過去48時間の天気

シーブ国際空港 (Seeb, International Airport)

現在時刻: 9/22 21:52 +04 (9/22 17:52 UTC) 以下の時間は現地時間です。

過去48時間のMETAR気象情報
時間 風向 風速(m/s) 視程 気温(℃) 湿度(%) 気圧(hPa) 天気現象
22 20:50 西南西 2 10km以上 32 49 1002
22 19:50 南西 2 10km以上 33 49 1002
22 18:50 不定 1 10km以上 33 59 1002
22 17:50 北西 3 10km以上 34 53 1002
22 16:50 4 10km以上 34 53 1002
22 15:50 北北東 3 10km以上 36 37 1001
22 14:50 4 10km以上 36 31 1002
22 13:50 北北西 5 10km以上 37 25 1002
22 12:50 北北西 6 10km以上 36 42 1003
22 11:50 北北西 6 10km以上 38 20 1003
22 10:50 北北西 6 10km以上 39 23 1004
22 09:50 西 3 9000m 38 16 1004
22 08:50 静穏 0 10km以上 36 29 1004
22 07:50 西 2 10km以上 33 41 1003
22 06:50 北西 2 10km以上 29 55 1003
22 05:50 西 1 10km以上 28 58 1002
22 04:50 南西 2 10km以上 28 70 1002
22 03:50 4 10km以上 28 84 1002
22 02:50 南南西 2 10km以上 28 74 1002
22 01:50 不定 1 10km以上 29 70 1002
22 00:50 4 10km以上 31 70 1002
21 23:50 南南西 2 10km以上 29 55 1002
OOMS 221650Z 25003KT CAVOK 32/20 Q1002 NOSIG
OOMS 221550Z 22004KT CAVOK 33/21 Q1002 NOSIG
OOMS 221450Z VRB01KT CAVOK 33/24 Q1002 NOSIG
OOMS 221350Z 32005KT CAVOK 34/23 Q1002 NOSIG
OOMS 221250Z 36007KT CAVOK 34/23 Q1002 NOSIG
OOMS 221150Z 02005KT 340V060 CAVOK 36/19 Q1001 NOSIG
OOMS 221050Z 36008KT CAVOK 36/16 Q1002 NOSIG
OOMS 220950Z 34009KT CAVOK 37/14 Q1002 NOSIG
OOMS 220850Z 34012KT CAVOK 36/21 Q1003 NOSIG
OOMS 220750Z 33012KT CAVOK 38/11 Q1003 NOSIG
OOMS 220650Z 33011KT CAVOK 39/14 Q1004 NOSIG
OOMS 220550Z 28006KT 240V310 9000 NSC 38/08 Q1004 NOSIG
OOMS 220450Z 00000KT CAVOK 36/15 Q1004 NOSIG
OOMS 220350Z 26003KT 230V290 CAVOK 33/18 Q1003 NOSIG
OOMS 220250Z 32004KT CAVOK 29/19 Q1003 NOSIG
OOMS 220150Z 26002KT CAVOK 28/19 Q1002 NOSIG
OOMS 220050Z 22003KT CAVOK 28/22 Q1002 NOSIG
OOMS 212350Z 18008KT CAVOK 28/25 Q1002 NOSIG
OOMS 212250Z 21003KT 9999 FEW015 28/23 Q1002 NOSIG
OOMS 212150Z VRB02KT CAVOK 29/23 Q1002 NOSIG
OOMS 212050Z 35008KT CAVOK 31/25 Q1002 NOSIG
OOMS 211950Z 21003KT CAVOK 29/19 Q1002 NOSIG